Time,TemperatureF,DewpointF,PressureIn,WindDirection,WindDirectionDegrees,WindSpeedMPH,WindSpeedGustMPH,Humidity,HourlyPrecipIn,Conditions,Clouds,dailyrainin,SoftwareType,DateUTC
2013-10-03 00:01:00,61.5,59.8,29.53,South,180,0.0,0.0,94,0.00,CLR,SCT,0.00,WeatherDisplay:10.37,2013-10-03 04:01:00,
2013-10-03 00:06:00,61.5,59.8,29.53,South,180,0.0,0.0,94,0.00,CLR,SCT,0.00,WeatherDisplay:10.37,2013-10-03 04:06:00,
2013-10-03 00:11:00,61.2,59.4,29.52,South,180,0.0,0.0,94,0.00,CLR,SCT,0.00,WeatherDisplay:10.37,2013-10-03 04:11:00,
2013-10-03 00:16:00,61.2,59.4,29.53,South,180,0.0,0.0,94,0.00,CLR,SCT,0.00,WeatherDisplay:10.37,2013-10-03 04:16:00,
2013-10-03 00:21:00,61.0,59.2,29.53,South,180,0.0,0.0,94,0.00,CLR,SCT,0.00,WeatherDisplay:10.37,2013-10-03 04:21:00,
2013-10-03 00:26:00,61.0,59.2,29.52,South,180,0.0,0.0,94,0.00,CLR,SCT,0.00,WeatherDisplay:10.37,2013-10-03 04:26:00,
2013-10-03 00:31:00,60.8,59.1,29.52,South,180,0.0,0.0,94,0.00,CLR,SCT,0.00,WeatherDisplay:10.37,2013-10-03 04:31:00,
2013-10-03 00:36:00,60.8,59.1,29.52,South,180,0.0,0.0,94,0.00,CLR,SCT,0.00,WeatherDisplay:10.37,2013-10-03 04:36:00,
2013-10-03 00:41:00,60.6,59.2,29.52,NE,45,0.0,0.0,95,0.00,CLR,SCT,0.00,WeatherDisplay:10.37,2013-10-03 04:41:00,
2013-10-03 00:46:00,60.6,59.2,29.53,NE,45,0.0,0.0,95,0.00,CLR,SCT,0.00,WeatherDisplay:10.37,2013-10-03 04:46:00,
2013-10-03 00:51:00,60.4,59.0,29.53,SE,135,0.0,0.0,95,0.00,CLR,SCT,0.00,WeatherDisplay:10.37,2013-10-03 04:51:00,
2013-10-03 00:56:00,60.4,59.0,29.52,SE,135,0.0,0.0,95,0.00,CLR,SCT,0.00,WeatherDisplay:10.37,2013-10-03 04:56:00,
2013-10-03 01:01:00,60.4,59.3,29.53,SE,135,0.0,0.0,96,0.00,CLR,SCT,0.00,WeatherDisplay:10.37,2013-10-03 05:01:00,
2013-10-03 01:06:00,60.3,59.1,29.53,SE,135,0.0,0.0,96,0.00,CLR,SCT,0.00,WeatherDisplay:10.37,2013-10-03 05:06:00,
2013-10-03 01:11:00,60.1,58.9,29.53,SE,135,0.0,0.0,96,0.00,CLR,SCT,0.00,WeatherDisplay:10.37,2013-10-03 05:11:00,
2013-10-03 01:16:00,60.1,58.9,29.53,SE,135,0.0,0.0,96,0.00,CLR,SCT,0.00,WeatherDisplay:10.37,2013-10-03 05:16:00,
2013-10-03 01:21:00,59.9,58.8,29.53,SE,135,0.0,0.0,96,0.00,CLR,SCT,0.00,WeatherDisplay:10.37,2013-10-03 05:21:00,
2013-10-03 01:26:00,59.9,58.8,29.52,SE,135,0.0,0.0,96,0.00,CLR,SCT,0.00,WeatherDisplay:10.37,2013-10-03 05:26:00,
2013-10-03 01:31:00,59.7,58.6,29.52,SE,135,0.0,0.0,96,0.00,CLR,SCT,0.00,WeatherDisplay:10.37,2013-10-03 05:31:00,
2013-10-03 01:36:00,59.5,58.4,29.52,SE,135,0.0,0.0,96,0.00,CLR,SCT,0.00,WeatherDisplay:10.37,2013-10-03 05:36:00,
2013-10-03 01:41:00,59.5,58.4,29.52,SE,135,0.0,0.0,96,0.00,CLR,SCT,0.00,WeatherDisplay:10.37,2013-10-03 05:41:00,
2013-10-03 01:46:00,59.4,58.2,29.52,SE,135,0.0,0.0,96,0.00,CLR,SCT,0.00,WeatherDisplay:10.37,2013-10-03 05:46:00,
2013-10-03 01:51:00,59.4,58.2,29.52,SE,135,0.0,0.0,96,0.00,CLR,SCT,0.00,WeatherDisplay:10.37,2013-10-03 05:51:00,
2013-10-03 01:56:00,59.4,58.2,29.53,SE,135,0.0,0.0,96,0.00,CLR,SCT,0.00,WeatherDisplay:10.37,2013-10-03 05:56:00,
2013-10-03 02:01:00,59.4,58.2,29.52,SE,135,0.0,0.0,96,0.00,CLR,SCT,0.00,WeatherDisplay:10.37,2013-10-03 06:01:00,
2013-10-03 02:06:00,59.4,58.2,29.52,SE,135,0.0,0.0,96,0.00,CLR,SCT,0.00,WeatherDisplay:10.37,2013-10-03 06:06:00,
2013-10-03 02:11:00,59.4,58.2,29.52,SE,135,0.0,0.0,96,0.00,CLR,SCT,0.00,WeatherDisplay:10.37,2013-10-03 06:11:00,
2013-10-03 02:16:00,59.2,58.0,29.52,SE,135,0.0,0.0,96,0.00,CLR,SCT,0.00,WeatherDisplay:10.37,2013-10-03 06:16:00,
2013-10-03 02:21:00,59.2,58.0,29.52,SE,135,0.0,0.0,96,0.00,CLR,SCT,0.00,WeatherDisplay:10.37,2013-10-03 06:21:00,
2013-10-03 02:26:00,59.2,58.0,29.52,SE,135,0.0,0.0,96,0.00,CLR,SCT,0.00,WeatherDisplay:10.37,2013-10-03 06:26:00,
2013-10-03 02:31:00,59.2,58.0,29.52,SE,135,0.0,0.0,96,0.00,CLR,SCT,0.00,WeatherDisplay:10.37,2013-10-03 06:31:00,
2013-10-03 02:36:00,59.0,57.9,29.52,SE,135,0.0,0.0,96,0.00,CLR,SCT,0.00,WeatherDisplay:10.37,2013-10-03 06:36:00,
2013-10-03 02:41:00,59.0,57.9,29.52,SE,135,0.0,0.0,96,0.00,CLR,SCT,0.00,WeatherDisplay:10.37,2013-10-03 06:41:00,
2013-10-03 02:46:00,58.8,58.0,29.51,SE,135,0.0,0.0,97,0.00,CLR,SCT,0.00,WeatherDisplay:10.37,2013-10-03 06:46:00,
2013-10-03 02:51:00,58.8,58.0,29.51,SE,135,0.0,0.0,97,0.00,CLR,SCT,0.00,WeatherDisplay:10.37,2013-10-03 06:51:00,
2013-10-03 02:56:00,58.6,57.8,29.51,SE,135,0.0,0.0,97,0.00,CLR,SCT,0.00,WeatherDisplay:10.37,2013-10-03 06:56:00,
2013-10-03 03:01:00,58.6,57.8,29.51,SE,135,0.0,0.0,97,0.00,CLR,SCT,0.00,WeatherDisplay:10.37,2013-10-03 07:01:00,
2013-10-03 03:06:00,58.6,57.8,29.51,SE,135,0.0,0.0,97,0.00,CLR,SCT,0.00,WeatherDisplay:10.37,2013-10-03 07:06:00,
2013-10-03 03:12:00,58.5,57.6,29.50,SE,135,0.0,0.0,97,0.00,CLR,SCT,0.00,WeatherDisplay:10.37,2013-10-03 07:12:00,
2013-10-03 03:16:00,58.5,57.6,29.51,SE,135,0.0,0.0,97,0.00,CLR,SCT,0.00,WeatherDisplay:10.37,2013-10-03 07:16:00,
2013-10-03 03:22:00,58.5,57.6,29.51,SE,135,0.0,0.0,97,0.00,CLR,SCT,0.00,WeatherDisplay:10.37,2013-10-03 07:22:00,
2013-10-03 03:27:00,58.6,57.8,29.51,SE,135,0.0,0.0,97,0.00,CLR,SCT,0.00,WeatherDisplay:10.37,2013-10-03 07:27:00,
2013-10-03 03:32:00,58.6,57.8,29.50,SE,135,0.0,0.0,97,0.00,CLR,SCT,0.00,WeatherDisplay:10.37,2013-10-03 07:32:00,
2013-10-03 03:37:00,58.5,57.6,29.50,SE,135,0.0,0.0,97,0.00,CLR,SCT,0.00,WeatherDisplay:10.37,2013-10-03 07:37:00,
2013-10-03 03:42:00,58.5,57.6,29.50,SE,135,0.0,0.0,97,0.00,CLR,SCT,0.00,WeatherDisplay:10.37,2013-10-03 07:42:00,
2013-10-03 03:47:00,58.5,57.6,29.50,SE,135,0.0,0.0,97,0.00,CLR,SCT,0.00,WeatherDisplay:10.37,2013-10-03 07:47:00,
2013-10-03 03:52:00,58.5,57.6,29.50,SE,135,0.0,0.0,97,0.00,CLR,SCT,0.00,WeatherDisplay:10.37,2013-10-03 07:52:00,
2013-10-03 03:57:00,58.5,57.6,29.50,SE,135,0.0,0.0,97,0.00,CLR,SCT,0.00,WeatherDisplay:10.37,2013-10-03 07:57:00,
2013-10-03 04:02:00,58.5,57.6,29.50,SE,135,0.0,0.0,97,0.00,CLR,SCT,0.00,WeatherDisplay:10.37,2013-10-03 08:02:00,
2013-10-03 04:07:00,58.5,57.6,29.50,SE,135,0.0,0.0,97,0.00,CLR,SCT,0.00,WeatherDisplay:10.37,2013-10-03 08:07:00,
2013-10-03 04:12:00,58.6,57.8,29.50,SE,135,0.0,0.0,97,0.00,CLR,SCT,0.00,WeatherDisplay:10.37,2013-10-03 08:12:00,
2013-10-03 04:17:00,58.6,57.8,29.50,SE,135,0.0,0.0,97,0.00,CLR,SCT,0.00,WeatherDisplay:10.37,2013-10-03 08:17:00,
2013-10-03 04:22:00,58.5,57.6,29.50,SE,135,0.0,0.0,97,0.00,CLR,SCT,0.00,WeatherDisplay:10.37,2013-10-03 08:22:00,
2013-10-03 04:27:00,58.5,57.6,29.50,SE,135,0.0,0.0,97,0.00,CLR,SCT,0.00,WeatherDisplay:10.37,2013-10-03 08:27:00,
2013-10-03 04:32:00,58.5,57.6,29.50,SE,135,0.0,0.0,97,0.00,CLR,SCT,0.00,WeatherDisplay:10.37,2013-10-03 08:32:00,
2013-10-03 04:37:00,58.5,57.6,29.50,SE,135,0.0,0.0,97,0.00,CLR,SCT,0.00,WeatherDisplay:10.37,2013-10-03 08:37:00,
2013-10-03 04:42:00,58.5,57.6,29.50,SE,135,0.0,0.0,97,0.00,CLR,SCT,0.00,WeatherDisplay:10.37,2013-10-03 08:42:00,
2013-10-03 04:47:00,58.5,57.6,29.50,SE,135,0.0,0.0,97,0.00,CLR,SCT,0.00,WeatherDisplay:10.37,2013-10-03 08:47:00,
2013-10-03 04:52:00,58.5,57.6,29.50,SE,135,0.0,0.0,97,0.00,CLR,SCT,0.00,WeatherDisplay:10.37,2013-10-03 08:52:00,
2013-10-03 04:57:00,58.5,57.6,29.50,SE,135,0.0,0.0,97,0.00,CLR,SCT,0.00,WeatherDisplay:10.37,2013-10-03 08:57:00,
2013-10-03 05:02:00,58.3,57.4,29.50,SE,135,0.0,0.0,97,0.00,CLR,SCT,0.00,WeatherDisplay:10.37,2013-10-03 09:02:00,
2013-10-03 05:07:00,58.3,57.4,29.50,SE,135,0.0,0.0,97,0.00,CLR,SCT,0.00,WeatherDisplay:10.37,2013-10-03 09:07:00,
2013-10-03 05:12:00,58.3,57.4,29.50,SE,135,0.0,0.0,97,0.00,CLR,SCT,0.00,WeatherDisplay:10.37,2013-10-03 09:12:00,
2013-10-03 05:17:00,58.3,57.4,29.50,SE,135,0.0,0.0,97,0.00,CLR,SCT,0.00,WeatherDisplay:10.37,2013-10-03 09:17:00,
2013-10-03 05:22:00,58.3,57.4,29.50,SE,135,0.0,0.0,97,0.00,CLR,SCT,0.00,WeatherDisplay:10.37,2013-10-03 09:22:00,
2013-10-03 05:27:00,58.1,57.3,29.50,SE,135,0.0,0.0,97,0.00,CLR,SCT,0.00,WeatherDisplay:10.37,2013-10-03 09:27:00,
2013-10-03 05:32:00,58.1,57.3,29.50,SE,135,0.0,0.0,97,0.00,CLR,SCT,0.00,WeatherDisplay:10.37,2013-10-03 09:32:00,
2013-10-03 05:37:00,57.9,57.1,29.50,SE,135,0.0,0.0,97,0.00,CLR,SCT,0.00,WeatherDisplay:10.37,2013-10-03 09:37:00,
2013-10-03 05:42:00,57.9,57.1,29.50,SE,135,0.0,0.0,97,0.00,CLR,SCT,0.00,WeatherDisplay:10.37,2013-10-03 09:42:00,
2013-10-03 05:47:00,57.9,57.1,29.50,SE,135,0.0,0.0,97,0.00,CLR,SCT,0.00,WeatherDisplay:10.37,2013-10-03 09:47:00,
2013-10-03 05:52:00,57.7,56.9,29.50,SE,135,0.0,0.0,97,0.00,CLR,SCT,0.00,WeatherDisplay:10.37,2013-10-03 09:52:00,
2013-10-03 05:57:00,57.7,56.9,29.50,SE,135,0.0,0.0,97,0.00,CLR,SCT,0.00,WeatherDisplay:10.37,2013-10-03 09:57:00,
2013-10-03 06:02:00,57.7,56.9,29.50,SE,135,0.0,0.0,97,0.00,CLR,SCT,0.00,WeatherDisplay:10.37,2013-10-03 10:02:00,
2013-10-03 06:07:00,57.7,56.9,29.50,SE,135,0.0,0.0,97,0.00,CLR,SCT,0.00,WeatherDisplay:10.37,2013-10-03 10:07:00,
2013-10-03 06:12:00,57.7,56.9,29.51,SE,135,0.0,0.0,97,0.00,CLR,SCT,0.00,WeatherDisplay:10.37,2013-10-03 10:12:00,
2013-10-03 06:17:00,57.7,56.9,29.51,SE,135,0.0,0.0,97,0.00,CLR,SCT,0.00,WeatherDisplay:10.37,2013-10-03 10:17:00,
2013-10-03 06:22:00,57.7,56.9,29.51,SE,135,0.0,0.0,97,0.00,CLR,SCT,0.00,WeatherDisplay:10.37,2013-10-03 10:22:00,
2013-10-03 06:27:00,57.7,56.9,29.50,SE,135,0.0,0.0,97,0.00,CLR,SCT,0.00,WeatherDisplay:10.37,2013-10-03 10:27:00,
2013-10-03 06:32:00,57.7,56.9,29.51,SE,135,0.0,0.0,97,0.00,CLR,SCT,0.00,WeatherDisplay:10.37,2013-10-03 10:32:00,
2013-10-03 06:37:00,57.7,56.9,29.51,SE,135,0.0,0.0,97,0.00,CLR,SCT,0.00,WeatherDisplay:10.37,2013-10-03 10:37:00,
2013-10-03 06:42:00,57.7,57.2,29.51,SE,135,0.0,0.0,98,0.00,CLR,SCT,0.00,WeatherDisplay:10.37,2013-10-03 10:42:00,
2013-10-03 06:47:00,57.7,57.2,29.51,SE,135,0.0,0.0,98,0.00,CLR,SCT,0.00,WeatherDisplay:10.37,2013-10-03 10:47:00,
2013-10-03 06:52:00,57.7,57.2,29.51,SE,135,0.0,0.0,98,0.00,CLR,SCT,0.00,WeatherDisplay:10.37,2013-10-03 10:52:00,
2013-10-03 06:57:00,57.7,57.2,29.51,SE,135,0.0,0.0,98,0.00,CLR,SCT,0.00,WeatherDisplay:10.37,2013-10-03 10:57:00,
2013-10-03 07:02:00,57.7,57.2,29.51,SE,135,0.0,0.0,98,0.00,CLR,SCT,0.00,WeatherDisplay:10.37,2013-10-03 11:02:00,
2013-10-03 07:07:00,57.7,57.2,29.52,SE,135,0.0,0.0,98,0.00,CLR,SCT,0.00,WeatherDisplay:10.37,2013-10-03 11:07:00,
2013-10-03 07:12:00,57.7,57.2,29.51,SE,135,0.0,0.0,98,0.00,CLR,SCT,0.00,WeatherDisplay:10.37,2013-10-03 11:12:00,
2013-10-03 07:17:00,57.7,57.2,29.51,SE,135,0.0,0.0,98,0.00,CLR,SCT,0.00,WeatherDisplay:10.37,2013-10-03 11:17:00,
2013-10-03 07:22:00,57.6,57.0,29.51,SE,135,0.0,0.0,98,0.00,CLR,SCT,0.00,WeatherDisplay:10.37,2013-10-03 11:22:00,
2013-10-03 07:27:00,57.6,57.0,29.52,SE,135,0.0,0.0,98,0.00,CLR,SCT,0.00,WeatherDisplay:10.37,2013-10-03 11:27:00,
2013-10-03 07:32:00,57.6,57.0,29.51,SE,135,0.0,0.0,98,0.00,CLR,SCT,0.00,WeatherDisplay:10.37,2013-10-03 11:32:00,
2013-10-03 07:37:00,57.7,57.2,29.52,SE,135,0.0,0.0,98,0.00,CLR,SCT,0.00,WeatherDisplay:10.37,2013-10-03 11:37:00,
2013-10-03 07:42:00,57.7,57.2,29.52,SE,135,0.0,0.0,98,0.00,CLR,SCT,0.00,WeatherDisplay:10.37,2013-10-03 11:42:00,
2013-10-03 07:47:00,57.7,57.2,29.52,SE,135,0.0,0.0,98,0.00,CLR,SCT,0.00,WeatherDisplay:10.37,2013-10-03 11:47:00,
2013-10-03 07:52:00,57.9,57.4,29.52,SE,135,0.0,0.0,98,0.00,CLR,SCT,0.00,WeatherDisplay:10.37,2013-10-03 11:52:00,
2013-10-03 07:57:00,58.1,57.5,29.52,SE,135,0.0,0.0,98,0.00,CLR,SCT,0.00,WeatherDisplay:10.37,2013-10-03 11:57:00,
2013-10-03 08:02:00,58.3,57.7,29.52,SE,135,0.0,0.0,98,0.00,CLR,SCT,0.00,WeatherDisplay:10.37,2013-10-03 12:02:00,
2013-10-03 08:07:00,58.5,57.9,29.52,SE,135,0.0,0.0,98,0.00,CLR,SCT,0.00,WeatherDisplay:10.37,2013-10-03 12:07:00,
2013-10-03 08:12:00,59.0,58.2,29.53,SE,135,0.0,0.0,97,0.00,CLR,SCT,0.00,WeatherDisplay:10.37,2013-10-03 12:12:00,
2013-10-03 08:17:00,59.7,58.9,29.53,SE,135,0.0,0.0,97,0.00,CLR,SCT,0.00,WeatherDisplay:10.37,2013-10-03 12:17:00,
2013-10-03 08:22:00,60.1,59.5,29.53,South,180,0.0,0.0,98,0.00,CLR,SCT,0.00,WeatherDisplay:10.37,2013-10-03 12:22:00,
2013-10-03 08:27:00,60.3,59.7,29.53,SE,135,1.2,0.0,98,0.00,CLR,SCT,0.00,WeatherDisplay:10.37,2013-10-03 12:27:00,
2013-10-03 08:32:00,60.3,59.4,29.54,SE,135,0.0,0.0,97,0.00,CLR,SCT,0.00,WeatherDisplay:10.37,2013-10-03 12:32:00,
2013-10-03 08:37:00,60.3,59.4,29.53,South,180,1.2,0.0,97,0.00,CLR,SCT,0.00,WeatherDisplay:10.37,2013-10-03 12:37:00,
2013-10-03 08:42:00,60.6,59.8,29.53,South,180,0.0,0.0,97,0.00,CLR,SCT,0.00,WeatherDisplay:10.37,2013-10-03 12:42:00,
2013-10-03 08:47:00,61.5,60.4,29.54,SE,135,1.2,0.0,96,0.00,CLR,SCT,0.00,WeatherDisplay:10.37,2013-10-03 12:47:00,
2013-10-03 08:52:00,64.0,62.9,29.54,South,180,1.2,0.0,96,0.00,CLR,SCT,0.00,WeatherDisplay:10.37,2013-10-03 12:52:00,
2013-10-03 08:58:00,65.3,63.8,29.53,South,180,0.0,0.0,95,0.00,CLR,SCT,0.00,WeatherDisplay:10.37,2013-10-03 12:58:00,
2013-10-03 09:03:00,65.8,63.5,29.54,East,90,1.2,0.0,92,0.00,CLR,SCT,0.00,WeatherDisplay:10.37,2013-10-03 13:03:00,
2013-10-03 09:08:00,65.8,62.5,29.54,South,180,0.0,0.0,89,0.00,CLR,SCT,0.00,WeatherDisplay:10.37,2013-10-03 13:08:00,
2013-10-03 09:13:00,65.7,62.0,29.54,SE,135,0.0,0.0,88,0.00,CLR,SCT,0.00,WeatherDisplay:10.37,2013-10-03 13:13:00,
2013-10-03 09:18:00,66.0,62.0,29.54,SE,135,0.0,0.0,87,0.00,CLR,SCT,0.00,WeatherDisplay:10.37,2013-10-03 13:18:00,
2013-10-03 09:23:00,66.2,61.6,29.54,South,180,1.2,0.0,85,0.00,CLR,SCT,0.00,WeatherDisplay:10.37,2013-10-03 13:23:00,
2013-10-03 09:28:00,66.7,62.1,29.54,SE,135,1.2,0.0,85,0.00,CLR,SCT,0.00,WeatherDisplay:10.37,2013-10-03 13:28:00,
2013-10-03 09:33:00,67.1,62.4,29.54,SE,135,0.0,0.0,85,0.00,CLR,SCT,0.00,WeatherDisplay:10.37,2013-10-03 13:33:00,
2013-10-03 09:38:00,67.5,62.8,29.54,SE,135,0.0,0.0,85,0.00,CLR,SCT,0.00,WeatherDisplay:10.37,2013-10-03 13:38:00,
2013-10-03 09:43:00,69.4,64.0,29.54,East,90,0.0,0.0,83,0.00,CLR,SCT,0.00,WeatherDisplay:10.37,2013-10-03 13:43:00,
2013-10-03 09:48:00,70.0,62.8,29.54,SE,135,0.0,0.0,78,0.00,CLR,SCT,0.00,WeatherDisplay:10.37,2013-10-03 13:48:00,
2013-10-03 09:53:00,69.8,62.3,29.54,SW,225,1.2,0.0,77,0.00,CLR,SCT,0.00,WeatherDisplay:10.37,2013-10-03 13:53:00,
2013-10-03 09:58:00,71.1,63.5,29.54,SE,135,0.0,0.0,77,0.00,CLR,SCT,0.00,WeatherDisplay:10.37,2013-10-03 13:58:00,
2013-10-03 10:03:00,72.7,64.3,29.54,South,180,0.0,0.0,75,0.00,CLR,SCT,0.00,WeatherDisplay:10.37,2013-10-03 14:03:00,
2013-10-03 10:08:00,73.6,64.8,29.54,SE,135,0.0,0.0,74,0.00,CLR,SCT,0.00,WeatherDisplay:10.37,2013-10-03 14:08:00,
2013-10-03 10:13:00,75.0,64.2,29.54,SE,135,0.0,0.0,69,0.00,CLR,SCT,0.00,WeatherDisplay:10.37,2013-10-03 14:13:00,
2013-10-03 10:18:00,75.9,63.3,29.54,SE,135,0.0,0.0,65,0.00,CLR,SCT,0.00,WeatherDisplay:10.37,2013-10-03 14:18:00,
2013-10-03 10:23:00,77.0,64.3,29.54,SE,135,0.0,0.0,65,0.00,CLR,SCT,0.00,WeatherDisplay:10.37,2013-10-03 14:23:00,
2013-10-03 10:28:00,78.3,64.6,29.54,SE,135,0.0,0.0,63,0.00,CLR,SCT,0.00,WeatherDisplay:10.37,2013-10-03 14:28:00,
2013-10-03 10:33:00,78.4,64.8,29.54,SW,225,0.0,0.0,63,0.00,CLR,SCT,0.00,WeatherDisplay:10.37,2013-10-03 14:33:00,
2013-10-03 10:38:00,79.7,65.1,29.54,South,180,0.0,0.0,61,0.00,CLR,SCT,0.00,WeatherDisplay:10.37,2013-10-03 14:38:00,
2013-10-03 10:43:00,78.3,63.7,29.54,North,0,0.0,0.0,61,0.00,CLR,SCT,0.00,WeatherDisplay:10.37,2013-10-03 14:43:00,
2013-10-03 10:48:00,77.2,63.6,29.54,North,0,0.0,0.0,63,0.00,CLR,SCT,0.00,WeatherDisplay:10.37,2013-10-03 14:48:00,
2013-10-03 10:53:00,78.1,65.8,29.54,South,180,0.0,0.0,66,0.00,CLR,SCT,0.00,WeatherDisplay:10.37,2013-10-03 14:53:00,
2013-10-03 10:58:00,81.0,65.3,29.54,NW,315,0.0,0.0,59,0.00,CLR,SCT,0.00,WeatherDisplay:10.37,2013-10-03 14:58:00,
2013-10-03 11:03:00,81.0,63.8,29.53,North,0,0.0,0.0,56,0.00,CLR,SCT,0.00,WeatherDisplay:10.37,2013-10-03 15:03:00,
2013-10-03 11:08:00,80.8,63.6,29.54,North,0,0.0,0.0,56,0.00,CLR,SCT,0.00,WeatherDisplay:10.37,2013-10-03 15:08:00,
2013-10-03 11:13:00,80.4,65.7,29.54,SW,225,0.0,0.0,61,0.00,CLR,SCT,0.00,WeatherDisplay:10.37,2013-10-03 15:13:00,
2013-10-03 11:18:00,81.0,64.3,29.54,SW,225,0.0,0.0,57,0.00,CLR,SCT,0.00,WeatherDisplay:10.37,2013-10-03 15:18:00,
2013-10-03 11:23:00,80.8,63.6,29.54,NE,45,0.0,0.0,56,0.00,CLR,SCT,0.00,WeatherDisplay:10.37,2013-10-03 15:23:00,
2013-10-03 11:28:00,80.1,64.4,29.54,East,90,0.0,0.0,59,0.00,CLR,SCT,0.00,WeatherDisplay:10.37,2013-10-03 15:28:00,
2013-10-03 11:33:00,80.2,65.1,29.54,North,0,0.0,0.0,60,0.00,CLR,SCT,0.00,WeatherDisplay:10.37,2013-10-03 15:33:00,
2013-10-03 11:38:00,81.1,64.0,29.53,SE,135,0.0,0.0,56,0.00,CLR,SCT,0.00,WeatherDisplay:10.37,2013-10-03 15:38:00,
2013-10-03 11:43:00,81.0,64.3,29.53,South,180,0.0,0.0,57,0.00,CLR,SCT,0.00,WeatherDisplay:10.37,2013-10-03 15:43:00,
2013-10-03 11:48:00,81.5,64.8,29.53,West,270,0.0,0.0,57,0.00,CLR,SCT,0.00,WeatherDisplay:10.37,2013-10-03 15:48:00,
2013-10-03 11:54:00,81.5,63.3,29.53,NW,315,0.0,0.0,54,0.00,CLR,SCT,0.00,WeatherDisplay:10.37,2013-10-03 15:54:00,
2013-10-03 11:59:00,82.4,63.5,29.53,North,0,0.0,0.0,53,0.00,CLR,SCT,0.00,WeatherDisplay:10.37,2013-10-03 15:59:00,
2013-10-03 12:04:00,82.0,63.8,29.52,West,270,0.0,0.0,54,0.00,CLR,SCT,0.00,WeatherDisplay:10.37,2013-10-03 16:04:00,
2013-10-03 12:09:00,81.9,63.6,29.52,NE,45,0.0,0.0,54,0.00,CLR,SCT,0.00,WeatherDisplay:10.37,2013-10-03 16:09:00,
2013-10-03 12:14:00,82.9,64.6,29.52,East,90,0.0,0.0,54,0.00,CLR,SCT,0.00,WeatherDisplay:10.37,2013-10-03 16:14:00,
2013-10-03 12:19:00,84.2,64.1,29.52,West,270,0.0,0.0,51,0.00,CLR,SCT,0.00,WeatherDisplay:10.37,2013-10-03 16:19:00,
2013-10-03 12:24:00,83.7,63.6,29.53,North,0,0.0,0.0,51,0.00,CLR,SCT,0.00,WeatherDisplay:10.37,2013-10-03 16:24:00,
2013-10-03 12:29:00,82.2,62.8,29.52,North,0,0.0,0.0,52,0.00,CLR,SCT,0.00,WeatherDisplay:10.37,2013-10-03 16:29:00,
2013-10-03 12:34:00,82.2,63.4,29.52,NW,315,0.0,0.0,53,0.00,CLR,SCT,0.00,WeatherDisplay:10.37,2013-10-03 16:34:00,
2013-10-03 12:39:00,81.5,62.2,29.52,SW,225,0.0,0.0,52,0.00,CLR,SCT,0.00,WeatherDisplay:10.37,2013-10-03 16:39:00,
2013-10-03 12:44:00,82.4,64.1,29.52,SE,135,0.0,0.0,54,0.00,CLR,SCT,0.00,WeatherDisplay:10.37,2013-10-03 16:44:00,
2013-10-03 12:49:00,82.4,63.5,29.52,South,180,0.0,0.0,53,0.00,CLR,SCT,0.00,WeatherDisplay:10.37,2013-10-03 16:49:00,
2013-10-03 12:54:00,84.2,64.1,29.51,SW,225,0.0,0.0,51,0.00,CLR,SCT,0.00,WeatherDisplay:10.37,2013-10-03 16:54:00,
2013-10-03 12:59:00,85.1,63.8,29.51,South,180,0.0,0.0,49,0.00,CLR,SCT,0.00,WeatherDisplay:10.37,2013-10-03 16:59:00,
2013-10-03 13:04:00,84.4,63.1,29.51,North,0,0.0,0.0,49,0.00,CLR,SCT,0.00,WeatherDisplay:10.37,2013-10-03 17:04:00,
2013-10-03 13:09:00,82.6,64.3,29.51,East,90,0.0,0.0,54,0.00,CLR,SCT,0.00,WeatherDisplay:10.37,2013-10-03 17:09:00,
2013-10-03 13:14:00,83.7,64.7,29.51,South,180,0.0,0.0,53,0.00,CLR,SCT,0.00,WeatherDisplay:10.37,2013-10-03 17:14:00,
2013-10-03 13:19:00,85.3,64.0,29.51,SE,135,0.0,0.0,49,0.00,CLR,SCT,0.00,WeatherDisplay:10.37,2013-10-03 17:19:00,
2013-10-03 13:24:00,86.5,64.5,29.51,NW,315,0.0,0.0,48,0.00,CLR,SCT,0.00,WeatherDisplay:10.37,2013-10-03 17:24:00,
2013-10-03 13:29:00,86.2,63.0,29.50,SE,135,0.0,0.0,46,0.00,CLR,SCT,0.00,WeatherDisplay:10.37,2013-10-03 17:29:00,
2013-10-03 13:34:00,84.2,62.4,29.50,North,0,0.0,0.0,48,0.00,CLR,SCT,0.00,WeatherDisplay:10.37,2013-10-03 17:34:00,
2013-10-03 13:39:00,85.1,63.8,29.50,South,180,0.0,0.0,49,0.00,CLR,SCT,0.00,WeatherDisplay:10.37,2013-10-03 17:39:00,
2013-10-03 13:44:00,86.5,62.7,29.50,North,0,0.0,0.0,45,0.00,CLR,SCT,0.00,WeatherDisplay:10.37,2013-10-03 17:44:00,
2013-10-03 13:49:00,86.2,62.3,29.50,West,270,1.2,0.0,45,0.00,CLR,SCT,0.00,WeatherDisplay:10.37,2013-10-03 17:49:00,
2013-10-03 13:54:00,86.7,62.8,29.49,North,0,0.0,0.0,45,0.00,CLR,SCT,0.00,WeatherDisplay:10.37,2013-10-03 17:54:00,
2013-10-03 13:59:00,85.1,62.0,29.49,South,180,0.0,0.0,46,0.00,CLR,SCT,0.00,WeatherDisplay:10.37,2013-10-03 17:59:00,
2013-10-03 14:04:00,83.5,62.9,29.49,NW,315,0.0,0.0,50,0.00,CLR,SCT,0.00,WeatherDisplay:10.37,2013-10-03 18:04:00,
2013-10-03 14:09:00,82.4,61.9,29.49,South,180,0.0,0.0,50,0.00,CLR,SCT,0.00,WeatherDisplay:10.37,2013-10-03 18:09:00,
2013-10-03 14:14:00,82.0,62.1,29.48,SE,135,0.0,0.0,51,0.00,CLR,SCT,0.00,WeatherDisplay:10.37,2013-10-03 18:14:00,
2013-10-03 14:19:00,82.2,62.3,29.49,NW,315,0.0,0.0,51,0.00,CLR,SCT,0.00,WeatherDisplay:10.37,2013-10-03 18:19:00,
2013-10-03 14:24:00,83.1,62.0,29.49,North,0,0.0,0.0,49,0.00,CLR,SCT,0.00,WeatherDisplay:10.37,2013-10-03 18:24:00,
2013-10-03 14:29:00,83.7,62.5,29.49,South,180,0.0,0.0,49,0.00,CLR,SCT,0.00,WeatherDisplay:10.37,2013-10-03 18:29:00,
2013-10-03 14:34:00,84.4,61.9,29.48,NW,315,0.0,0.0,47,0.00,CLR,SCT,0.00,WeatherDisplay:10.37,2013-10-03 18:34:00,
2013-10-03 14:39:00,84.6,62.7,29.48,SW,225,0.0,0.0,48,0.00,CLR,SCT,0.00,WeatherDisplay:10.37,2013-10-03 18:39:00,
2013-10-03 14:44:00,84.6,61.5,29.48,SW,225,1.2,0.0,46,0.00,CLR,SCT,0.00,WeatherDisplay:10.37,2013-10-03 18:44:00,
2013-10-03 14:49:00,84.2,62.4,29.48,North,0,0.0,0.0,48,0.00,CLR,SCT,0.00,WeatherDisplay:10.37,2013-10-03 18:49:00,
2013-10-03 14:54:00,83.1,62.6,29.48,SE,135,1.2,0.0,50,0.00,CLR,SCT,0.00,WeatherDisplay:10.37,2013-10-03 18:54:00,
2013-10-03 14:59:00,83.5,62.3,29.48,SE,135,0.0,0.0,49,0.00,CLR,SCT,0.00,WeatherDisplay:10.37,2013-10-03 18:59:00,
2013-10-03 15:04:00,83.8,62.6,29.47,South,180,0.0,0.0,49,0.00,CLR,SCT,0.00,WeatherDisplay:10.37,2013-10-03 19:04:00,
2013-10-03 15:09:00,83.7,63.0,29.47,SE,135,0.0,0.0,50,0.00,CLR,SCT,0.00,WeatherDisplay:10.37,2013-10-03 19:09:00,
2013-10-03 15:14:00,82.9,63.0,29.47,South,180,0.0,0.0,51,0.00,CLR,SCT,0.00,WeatherDisplay:10.37,2013-10-03 19:14:00,
2013-10-03 15:19:00,82.4,62.5,29.47,North,0,0.0,0.0,51,0.00,CLR,SCT,0.00,WeatherDisplay:10.37,2013-10-03 19:19:00,
2013-10-03 15:24:00,81.5,62.7,29.47,South,180,1.2,0.0,53,0.00,CLR,SCT,0.00,WeatherDisplay:10.37,2013-10-03 19:24:00,
2013-10-03 15:29:00,81.0,62.7,29.47,South,180,0.0,0.0,54,0.00,CLR,SCT,0.00,WeatherDisplay:10.37,2013-10-03 19:29:00,
2013-10-03 15:34:00,80.4,62.8,29.47,NE,45,0.0,0.0,55,0.00,CLR,SCT,0.00,WeatherDisplay:10.37,2013-10-03 19:34:00,
2013-10-03 15:39:00,80.2,63.1,29.47,SW,225,0.7,0.0,56,0.00,CLR,SCT,0.00,WeatherDisplay:10.37,2013-10-03 19:39:00,
2013-10-03 15:44:00,80.1,63.5,29.47,East,90,1.2,0.0,57,0.00,CLR,SCT,0.00,WeatherDisplay:10.37,2013-10-03 19:44:00,
2013-10-03 15:49:00,80.1,64.0,29.47,SW,225,0.0,0.0,58,0.00,CLR,SCT,0.00,WeatherDisplay:10.37,2013-10-03 19:49:00,
2013-10-03 15:54:00,80.1,64.4,29.47,SE,135,0.0,0.0,59,0.00,CLR,SCT,0.00,WeatherDisplay:10.37,2013-10-03 19:54:00,
2013-10-03 15:59:00,80.4,64.3,29.47,South,180,1.2,0.0,58,0.00,CLR,SCT,0.00,WeatherDisplay:10.37,2013-10-03 19:59:00,
2013-10-03 16:04:00,81.0,64.8,29.47,SE,135,0.0,0.0,58,0.00,CLR,SCT,0.00,WeatherDisplay:10.37,2013-10-03 20:04:00,
2013-10-03 16:09:00,81.0,63.3,29.47,South,180,0.0,0.0,55,0.00,CLR,SCT,0.00,WeatherDisplay:10.37,2013-10-03 20:09:00,
2013-10-03 16:14:00,81.1,63.4,29.47,SW,225,0.0,0.0,55,0.00,CLR,SCT,0.00,WeatherDisplay:10.37,2013-10-03 20:14:00,
2013-10-03 16:19:00,81.5,62.7,29.47,SW,225,1.2,0.0,53,0.00,CLR,SCT,0.00,WeatherDisplay:10.37,2013-10-03 20:19:00,
2013-10-03 16:24:00,81.3,63.1,29.47,SE,135,0.0,0.0,54,0.00,CLR,SCT,0.00,WeatherDisplay:10.37,2013-10-03 20:24:00,
2013-10-03 16:29:00,80.8,63.1,29.47,South,180,0.0,0.0,55,0.00,CLR,SCT,0.00,WeatherDisplay:10.37,2013-10-03 20:29:00,
2013-10-03 16:34:00,79.7,62.6,29.47,SE,135,1.2,0.0,56,0.00,CLR,SCT,0.00,WeatherDisplay:10.37,2013-10-03 20:34:00,
2013-10-03 16:39:00,79.2,62.6,29.46,SW,225,1.2,0.0,57,0.00,CLR,SCT,0.00,WeatherDisplay:10.37,2013-10-03 20:39:00,
2013-10-03 16:44:00,78.6,63.1,29.46,NE,45,1.2,0.0,59,0.00,CLR,SCT,0.00,WeatherDisplay:10.37,2013-10-03 20:44:00,
2013-10-03 16:49:00,78.4,63.4,29.46,SE,135,1.2,0.0,60,0.00,CLR,SCT,0.00,WeatherDisplay:10.37,2013-10-03 20:49:00,
2013-10-03 16:54:00,78.6,63.1,29.46,SE,135,0.0,0.0,59,0.00,CLR,SCT,0.00,WeatherDisplay:10.37,2013-10-03 20:54:00,
2013-10-03 16:59:00,79.2,63.6,29.47,North,0,0.0,0.0,59,0.00,CLR,SCT,0.00,WeatherDisplay:10.37,2013-10-03 20:59:00,
2013-10-03 17:04:00,79.3,63.3,29.47,SE,135,0.0,0.0,58,0.00,CLR,SCT,0.00,WeatherDisplay:10.37,2013-10-03 21:04:00,
2013-10-03 17:09:00,79.3,62.3,29.47,SE,135,0.0,0.0,56,0.00,CLR,SCT,0.00,WeatherDisplay:10.37,2013-10-03 21:09:00,
2013-10-03 17:14:00,79.3,62.8,29.47,SW,225,1.2,0.0,57,0.00,CLR,SCT,0.00,WeatherDisplay:10.37,2013-10-03 21:14:00,
2013-10-03 17:19:00,79.3,61.8,29.47,West,270,1.2,0.0,55,0.00,CLR,SCT,0.00,WeatherDisplay:10.37,2013-10-03 21:19:00,
2013-10-03 17:24:00,79.5,61.9,29.47,East,90,0.0,0.0,55,0.00,CLR,SCT,0.00,WeatherDisplay:10.37,2013-10-03 21:24:00,
2013-10-03 17:29:00,79.3,62.3,29.47,NW,315,1.2,0.0,56,0.00,CLR,SCT,0.00,WeatherDisplay:10.37,2013-10-03 21:29:00,
2013-10-03 17:35:00,79.3,62.8,29.46,SE,135,0.0,0.0,57,0.00,CLR,SCT,0.00,WeatherDisplay:10.37,2013-10-03 21:35:00,
2013-10-03 17:40:00,79.2,62.1,29.47,SE,135,1.2,0.0,56,0.00,CLR,SCT,0.00,WeatherDisplay:10.37,2013-10-03 21:40:00,
2013-10-03 17:45:00,79.2,62.6,29.47,SE,135,1.2,0.0,57,0.00,CLR,SCT,0.00,WeatherDisplay:10.37,2013-10-03 21:45:00,
2013-10-03 17:50:00,79.2,62.1,29.47,SW,225,1.2,0.0,56,0.00,CLR,SCT,0.00,WeatherDisplay:10.37,2013-10-03 21:50:00,
2013-10-03 17:55:00,79.2,62.1,29.47,East,90,1.2,0.0,56,0.00,CLR,SCT,0.00,WeatherDisplay:10.37,2013-10-03 21:55:00,
2013-10-03 18:00:00,79.0,62.4,29.47,NW,315,0.0,0.0,57,0.00,CLR,SCT,0.00,WeatherDisplay:10.37,2013-10-03 22:00:00,
2013-10-03 18:05:00,78.8,62.3,29.47,SW,225,1.2,0.0,57,0.00,CLR,SCT,0.00,WeatherDisplay:10.37,2013-10-03 22:05:00,
2013-10-03 18:10:00,78.6,62.6,29.47,SW,225,1.2,0.0,58,0.00,CLR,SCT,0.00,WeatherDisplay:10.37,2013-10-03 22:10:00,
2013-10-03 18:15:00,78.3,62.8,29.47,SW,225,0.0,0.0,59,0.00,CLR,SCT,0.00,WeatherDisplay:10.37,2013-10-03 22:15:00,
2013-10-03 18:20:00,78.1,62.6,29.47,NE,45,1.2,0.0,59,0.00,CLR,SCT,0.00,WeatherDisplay:10.37,2013-10-03 22:20:00,
2013-10-03 18:25:00,77.7,62.2,29.47,East,90,1.2,0.0,59,0.00,CLR,SCT,0.00,WeatherDisplay:10.37,2013-10-03 22:25:00,
2013-10-03 18:30:00,77.4,62.9,29.47,SE,135,0.0,0.0,61,0.00,CLR,SCT,0.00,WeatherDisplay:10.37,2013-10-03 22:30:00,
2013-10-03 18:35:00,77.0,63.4,29.47,East,90,0.0,0.0,63,0.00,CLR,SCT,0.00,WeatherDisplay:10.37,2013-10-03 22:35:00,
2013-10-03 18:40:00,76.3,63.6,29.47,East,90,0.0,0.0,65,0.00,CLR,SCT,0.00,WeatherDisplay:10.37,2013-10-03 22:40:00,
2013-10-03 18:45:00,75.7,64.0,29.47,SE,135,1.2,0.0,67,0.00,CLR,SCT,0.00,WeatherDisplay:10.37,2013-10-03 22:45:00,
2013-10-03 18:50:00,75.2,63.9,29.47,South,180,0.0,0.0,68,0.00,CLR,SCT,0.00,WeatherDisplay:10.37,2013-10-03 22:50:00,
2013-10-03 18:55:00,74.7,64.6,29.48,SE,135,1.2,0.0,71,0.00,CLR,SCT,0.00,WeatherDisplay:10.37,2013-10-03 22:55:00,
2013-10-03 19:00:00,74.1,64.5,29.47,North,0,0.0,0.0,72,0.00,CLR,SCT,0.00,WeatherDisplay:10.37,2013-10-03 23:00:00,
2013-10-03 19:05:00,73.6,64.0,29.48,East,90,0.0,0.0,72,0.00,CLR,SCT,0.00,WeatherDisplay:10.37,2013-10-03 23:05:00,
2013-10-03 19:10:00,73.2,63.6,29.48,South,180,0.0,0.0,72,0.00,CLR,SCT,0.00,WeatherDisplay:10.37,2013-10-03 23:10:00,
2013-10-03 19:15:00,73.0,63.5,29.48,South,180,0.0,0.0,72,0.00,CLR,SCT,0.00,WeatherDisplay:10.37,2013-10-03 23:15:00,
2013-10-03 19:20:00,72.7,63.5,29.48,East,90,0.0,0.0,73,0.00,CLR,SCT,0.00,WeatherDisplay:10.37,2013-10-03 23:20:00,
2013-10-03 19:25:00,72.7,63.5,29.48,North,0,1.2,0.0,73,0.00,CLR,SCT,0.00,WeatherDisplay:10.37,2013-10-03 23:25:00,
2013-10-03 19:30:00,72.5,63.4,29.48,South,180,0.0,0.0,73,0.00,CLR,SCT,0.00,WeatherDisplay:10.37,2013-10-03 23:30:00,
2013-10-03 19:35:00,72.3,63.2,29.48,South,180,2.3,0.0,73,0.00,CLR,SCT,0.00,WeatherDisplay:10.37,2013-10-03 23:35:00,
2013-10-03 19:40:00,72.1,63.0,29.49,South,180,0.0,0.0,73,0.00,CLR,SCT,0.00,WeatherDisplay:10.37,2013-10-03 23:40:00,
2013-10-03 19:45:00,72.0,63.2,29.49,South,180,0.0,0.0,74,0.00,CLR,SCT,0.00,WeatherDisplay:10.37,2013-10-03 23:45:00,
2013-10-03 19:50:00,71.8,63.0,29.49,South,180,0.0,0.0,74,0.00,CLR,SCT,0.00,WeatherDisplay:10.37,2013-10-03 23:50:00,
2013-10-03 19:55:00,71.6,63.3,29.49,South,180,0.0,0.0,75,0.00,CLR,SCT,0.00,WeatherDisplay:10.37,2013-10-03 23:55:00,
2013-10-03 20:00:00,71.2,63.3,29.49,South,180,1.2,0.0,76,0.00,CLR,SCT,0.00,WeatherDisplay:10.37,2013-10-04 00:00:00,
2013-10-03 20:05:00,71.1,63.5,29.49,South,180,1.2,0.0,77,0.00,CLR,SCT,0.00,WeatherDisplay:10.37,2013-10-04 00:05:00,
2013-10-03 20:10:00,70.9,63.3,29.49,South,180,0.0,0.0,77,0.00,CLR,SCT,0.00,WeatherDisplay:10.37,2013-10-04 00:10:00,
2013-10-03 20:15:00,70.7,63.5,29.49,SE,135,0.0,0.0,78,0.00,CLR,SCT,0.00,WeatherDisplay:10.37,2013-10-04 00:15:00,
2013-10-03 20:20:00,70.5,63.7,29.49,SE,135,1.2,0.0,79,0.00,CLR,SCT,0.00,WeatherDisplay:10.37,2013-10-04 00:20:00,
2013-10-03 20:25:00,70.2,63.7,29.49,SE,135,0.0,0.0,80,0.00,CLR,SCT,0.00,WeatherDisplay:10.37,2013-10-04 00:25:00,
2013-10-03 20:30:00,69.8,63.7,29.49,SE,135,0.0,0.0,81,0.00,CLR,SCT,0.00,WeatherDisplay:10.37,2013-10-04 00:30:00,
2013-10-03 20:35:00,69.4,63.7,29.49,SE,135,1.2,0.0,82,0.00,CLR,SCT,0.00,WeatherDisplay:10.37,2013-10-04 00:35:00,
2013-10-03 20:40:00,69.1,63.7,29.49,SE,135,0.0,0.0,83,0.00,CLR,SCT,0.00,WeatherDisplay:10.37,2013-10-04 00:40:00,
2013-10-03 20:45:00,68.9,63.5,29.50,SE,135,1.2,0.0,83,0.00,CLR,SCT,0.00,WeatherDisplay:10.37,2013-10-04 00:45:00,
2013-10-03 20:50:00,68.5,63.5,29.50,SE,135,1.2,0.0,84,0.00,CLR,SCT,0.00,WeatherDisplay:10.37,2013-10-04 00:50:00,
2013-10-03 20:55:00,68.4,63.3,29.50,SW,225,0.0,0.0,84,0.00,CLR,SCT,0.00,WeatherDisplay:10.37,2013-10-04 00:55:00,
2013-10-03 21:00:00,68.2,63.5,29.50,SW,225,0.0,0.0,85,0.00,CLR,SCT,0.00,WeatherDisplay:10.37,2013-10-04 01:00:00,
2013-10-03 21:05:00,68.0,63.3,29.50,SE,135,1.2,0.0,85,0.00,CLR,SCT,0.00,WeatherDisplay:10.37,2013-10-04 01:05:00,
2013-10-03 21:10:00,67.6,63.3,29.50,SE,135,1.6,0.0,86,0.00,CLR,SCT,0.00,WeatherDisplay:10.37,2013-10-04 01:10:00,
2013-10-03 21:15:00,67.3,62.9,29.50,SE,135,0.0,0.0,86,0.00,CLR,SCT,0.00,WeatherDisplay:10.37,2013-10-04 01:15:00,
2013-10-03 21:20:00,67.1,62.8,29.50,SE,135,0.0,0.0,86,0.00,CLR,SCT,0.00,WeatherDisplay:10.37,2013-10-04 01:20:00,
2013-10-03 21:25:00,66.7,62.7,29.50,SE,135,1.2,0.0,87,0.00,CLR,SCT,0.00,WeatherDisplay:10.37,2013-10-04 01:25:00,
2013-10-03 21:30:00,66.6,62.6,29.50,SW,225,0.0,0.0,87,0.00,CLR,SCT,0.00,WeatherDisplay:10.37,2013-10-04 01:30:00,
2013-10-03 21:35:00,66.6,62.6,29.50,SW,225,0.0,0.0,87,0.00,CLR,SCT,0.00,WeatherDisplay:10.37,2013-10-04 01:35:00,
2013-10-03 21:40:00,66.0,62.7,29.50,SW,225,1.2,0.0,89,0.00,CLR,SCT,0.00,WeatherDisplay:10.37,2013-10-04 01:40:00,
2013-10-03 21:45:00,65.7,62.3,29.50,SE,135,0.0,0.0,89,0.00,CLR,SCT,0.00,WeatherDisplay:10.37,2013-10-04 01:45:00,
2013-10-03 21:50:00,65.5,62.2,29.50,SE,135,0.0,0.0,89,0.00,CLR,SCT,0.00,WeatherDisplay:10.37,2013-10-04 01:50:00,
2013-10-03 21:55:00,65.3,62.3,29.51,SE,135,0.0,0.0,90,0.00,CLR,SCT,0.00,WeatherDisplay:10.37,2013-10-04 01:55:00,
2013-10-03 22:00:00,65.3,62.3,29.51,SE,135,0.0,0.0,90,0.00,CLR,SCT,0.00,WeatherDisplay:10.37,2013-10-04 02:00:00,
2013-10-03 22:05:00,65.3,62.3,29.51,SE,135,0.0,0.0,90,0.00,CLR,SCT,0.00,WeatherDisplay:10.37,2013-10-04 02:05:00,
2013-10-03 22:10:00,64.9,62.2,29.51,SE,135,0.0,0.0,91,0.00,CLR,SCT,0.00,WeatherDisplay:10.37,2013-10-04 02:10:00,
2013-10-03 22:15:00,64.8,62.1,29.51,SE,135,0.0,0.0,91,0.00,CLR,SCT,0.00,WeatherDisplay:10.37,2013-10-04 02:15:00,
2013-10-03 22:20:00,64.8,62.1,29.51,West,270,0.0,0.0,91,0.00,CLR,SCT,0.00,WeatherDisplay:10.37,2013-10-04 02:20:00,
2013-10-03 22:25:00,64.8,62.4,29.51,West,270,0.0,0.0,92,0.00,CLR,SCT,0.00,WeatherDisplay:10.37,2013-10-04 02:25:00,
2013-10-03 22:30:00,64.6,62.2,29.51,South,180,0.0,0.0,92,0.00,CLR,SCT,0.00,WeatherDisplay:10.37,2013-10-04 02:30:00,
2013-10-03 22:35:00,64.4,62.0,29.51,South,180,0.0,0.0,92,0.00,CLR,SCT,0.00,WeatherDisplay:10.37,2013-10-04 02:35:00,
2013-10-03 22:40:00,64.2,61.5,29.51,South,180,0.0,0.0,91,0.00,CLR,SCT,0.00,WeatherDisplay:10.37,2013-10-04 02:40:00,
2013-10-03 22:45:00,64.0,61.4,29.51,South,180,1.2,0.0,91,0.00,CLR,SCT,0.00,WeatherDisplay:10.37,2013-10-04 02:45:00,
2013-10-03 22:50:00,64.0,61.7,29.51,South,180,1.2,0.0,92,0.00,CLR,SCT,0.00,WeatherDisplay:10.37,2013-10-04 02:50:00,
2013-10-03 22:55:00,63.9,61.5,29.51,South,180,0.0,0.0,92,0.00,CLR,SCT,0.00,WeatherDisplay:10.37,2013-10-04 02:55:00,
2013-10-03 23:00:00,63.7,61.3,29.51,South,180,0.0,0.0,92,0.00,CLR,SCT,0.00,WeatherDisplay:10.37,2013-10-04 03:00:00,
2013-10-03 23:05:00,63.7,61.3,29.51,South,180,0.0,0.0,92,0.00,CLR,SCT,0.00,WeatherDisplay:10.37,2013-10-04 03:05:00,
2013-10-03 23:10:00,63.7,61.3,29.51,South,180,1.2,0.0,92,0.00,CLR,SCT,0.00,WeatherDisplay:10.37,2013-10-04 03:10:00,
2013-10-03 23:15:00,63.7,61.3,29.51,South,180,1.2,0.0,92,0.00,CLR,SCT,0.00,WeatherDisplay:10.37,2013-10-04 03:15:00,
2013-10-03 23:20:00,63.5,61.1,29.51,South,180,0.0,0.0,92,0.00,CLR,SCT,0.00,WeatherDisplay:10.37,2013-10-04 03:20:00,
2013-10-03 23:25:00,63.3,61.0,29.51,South,180,0.0,0.0,92,0.00,CLR,SCT,0.00,WeatherDisplay:10.37,2013-10-04 03:25:00,
2013-10-03 23:30:00,63.1,60.8,29.51,South,180,0.0,0.0,92,0.00,CLR,SCT,0.00,WeatherDisplay:10.37,2013-10-04 03:30:00,
2013-10-03 23:36:00,63.1,61.1,29.51,South,180,0.0,0.0,93,0.00,CLR,SCT,0.00,WeatherDisplay:10.37,2013-10-04 03:36:00,
2013-10-03 23:41:00,63.0,60.9,29.51,South,180,1.2,0.0,93,0.00,CLR,SCT,0.00,WeatherDisplay:10.37,2013-10-04 03:41:00,
2013-10-03 23:46:00,62.8,60.7,29.51,South,180,1.2,0.0,93,0.00,CLR,SCT,0.00,WeatherDisplay:10.37,2013-10-04 03:46:00,
2013-10-03 23:51:00,62.8,60.7,29.51,South,180,0.0,0.0,93,0.00,CLR,SCT,0.00,WeatherDisplay:10.37,2013-10-04 03:51:00,
2013-10-03 23:56:00,62.6,60.5,29.51,South,180,0.0,0.0,93,0.00,CLR,SCT,0.00,WeatherDisplay:10.37,2013-10-04 03:56:00,